Lexington, Michigan
Current Conditions -  °F | °C
As of 7:00 PM on Thursday 18 Dec 2014 (Local Time) from CYZR Reporting Station
Overcast Overcast  
Wind Chill: 18°   Ceiling: 1400
Heat Index: 28°   Visibility: 9mi
Dew Point: 25°   Wind: 12mph
Humidity: 86%   Direction: 330°NNW
Pressure: 30.17"   Gusts: NA
Location:  43.27°N, 82.53°W
Report Text: CYZR 190000Z AUTO 33010KT 9SM OVC014 M02/M04 A3017 RMK SLP225
Loading
Personal Weather Stations






























Interactive Weather Map New forecast layout! Learn more

10-Day Weather Forecast

Advertisements
Track Severe Weather on mobile